createdAt,value
2019-04-14T00:01:36.970Z,3.17
2019-04-14T00:05:42.920Z,3.26
2019-04-14T00:09:47.888Z,3.34
2019-04-14T00:13:52.805Z,3.41
2019-04-14T00:17:58.874Z,3.44
2019-04-14T00:22:05.164Z,3.49
2019-04-14T00:26:27.494Z,3.52
2019-04-14T00:30:33.544Z,3.52
2019-04-14T00:34:40.315Z,3.61
2019-04-14T00:38:47.810Z,3.52
2019-04-14T00:42:54.392Z,3.53
2019-04-14T00:47:16.212Z,3.54
2019-04-14T00:51:22.084Z,3.44
2019-04-14T00:55:27.172Z,3.23
2019-04-14T00:59:33.170Z,3.23
2019-04-14T01:03:39.378Z,3.29
2019-04-14T01:07:45.494Z,3.25
2019-04-14T01:11:51.013Z,3.06
2019-04-14T01:16:03.787Z,2.79
2019-04-14T01:20:03.626Z,2.74
2019-04-14T01:24:09.638Z,2.61
2019-04-14T01:28:15.736Z,2.49
2019-04-14T01:32:21.824Z,2.33
2019-04-14T01:36:27.694Z,2.27
2019-04-14T01:40:33.720Z,2.18
2019-04-14T01:44:39.576Z,2.11
2019-04-14T01:48:45.394Z,2.01
2019-04-14T01:53:07.566Z,1.94
2019-04-14T01:57:17.585Z,1.84
2019-04-14T02:01:24.141Z,1.82
2019-04-14T02:05:29.976Z,1.77
2019-04-14T02:09:35.765Z,1.77
2019-04-14T02:13:42.110Z,1.74
2019-04-14T02:17:48.160Z,1.68
2019-04-14T02:21:54.124Z,1.81
2019-04-14T02:26:00.109Z,1.76
2019-04-14T02:30:10.195Z,1.66
2019-04-14T02:34:43.791Z,1.61
2019-04-14T02:42:54.164Z,1.53
2019-04-14T02:47:09.824Z,1.56
2019-04-14T02:55:08.520Z,1.55
2019-04-14T02:59:41.598Z,1.55
2019-04-14T03:03:33.995Z,1.56
2019-04-14T03:07:37.907Z,1.52
2019-04-14T03:11:38.035Z,1.51
2019-04-14T03:15:48.178Z,1.50
2019-04-14T03:20:09.422Z,1.50
2019-04-14T03:24:13.125Z,1.52
2019-04-14T03:28:37.861Z,1.51
2019-04-14T03:32:53.185Z,1.45
2019-04-14T03:44:54.539Z,1.45
2019-04-14T03:48:58.524Z,1.48
2019-04-14T03:53:17.513Z,1.46
2019-04-14T03:56:53.866Z,1.47
2019-04-14T04:00:59.757Z,1.49
2019-04-14T04:05:06.459Z,1.49
2019-04-14T04:09:12.486Z,1.48
2019-04-14T04:13:17.530Z,1.49
2019-04-14T04:17:27.587Z,1.44
2019-04-14T04:21:46.638Z,1.67
2019-04-14T04:26:10.448Z,1.53
2019-04-14T04:30:17.075Z,1.45
2019-04-14T04:34:27.205Z,1.45
2019-04-14T04:38:37.519Z,1.42
2019-04-14T04:42:43.646Z,1.39
2019-04-14T04:46:48.567Z,1.34
2019-04-14T04:50:54.221Z,1.31
2019-04-14T04:55:00.265Z,1.32
2019-04-14T04:59:05.433Z,1.36
2019-04-14T05:03:10.434Z,1.41
2019-04-14T05:07:16.551Z,1.44
2019-04-14T05:11:40.408Z,1.47
2019-04-14T05:15:46.976Z,1.50
2019-04-14T05:19:51.993Z,1.53
2019-04-14T05:23:58.052Z,1.61
2019-04-14T05:28:03.098Z,1.67
2019-04-14T05:32:08.813Z,1.67
2019-04-14T05:36:14.936Z,1.78
2019-04-14T05:40:20.959Z,1.94
2019-04-14T05:44:26.068Z,2.12
2019-04-14T05:48:31.467Z,2.18
2019-04-14T05:52:36.380Z,2.29
2019-04-14T05:56:42.499Z,2.44
2019-04-14T06:00:48.141Z,2.74
2019-04-14T06:04:53.055Z,2.94
2019-04-14T06:08:57.971Z,3.90
2019-04-14T06:13:02.876Z,4.99
2019-04-14T06:17:07.772Z,5.63
2019-04-14T06:21:12.698Z,5.88
2019-04-14T06:25:17.619Z,5.75
2019-04-14T06:29:22.516Z,5.57
2019-04-14T06:33:38.275Z,5.02
2019-04-14T06:37:48.989Z,4.91
2019-04-14T06:41:53.886Z,4.74
2019-04-14T06:45:58.796Z,4.74
2019-04-14T06:50:04.380Z,5.56
2019-04-14T06:54:09.301Z,5.70
2019-04-14T06:58:14.207Z,6.48
2019-04-14T07:02:20.089Z,7.09
2019-04-14T07:06:25.017Z,6.23
2019-04-14T07:10:29.926Z,5.77
2019-04-14T07:14:34.836Z,5.38
2019-04-14T07:18:39.730Z,4.76
2019-04-14T07:22:44.648Z,4.56
2019-04-14T07:26:49.572Z,4.59
2019-04-14T07:31:05.171Z,4.59
2019-04-14T07:35:11.726Z,4.60
2019-04-14T07:39:34.687Z,4.60
2019-04-14T07:43:57.135Z,4.62
2019-04-14T07:48:07.195Z,4.66
2019-04-14T07:52:22.692Z,4.72
2019-04-14T07:56:39.454Z,4.69
2019-04-14T08:00:48.466Z,4.62
2019-04-14T08:04:55.035Z,4.69
2019-04-14T08:08:59.915Z,4.77
2019-04-14T08:13:05.397Z,5.12
2019-04-14T08:17:10.321Z,5.53
2019-04-14T08:21:15.235Z,5.41
2019-04-14T08:25:20.246Z,5.26
2019-04-14T08:29:25.111Z,5.49
2019-04-14T08:33:30.028Z,5.69
2019-04-14T08:37:34.941Z,5.81
2019-04-14T08:41:41.498Z,5.93
2019-04-14T08:45:53.837Z,6.01
2019-04-14T08:50:09.964Z,5.95
2019-04-14T08:54:25.426Z,5.93
2019-04-14T08:58:31.979Z,5.97
2019-04-14T09:02:54.964Z,6.18
2019-04-14T09:07:01.503Z,6.34
2019-04-14T09:11:08.056Z,6.31
2019-04-14T09:15:13.009Z,6.53
2019-04-14T09:19:17.919Z,6.73
2019-04-14T09:23:22.819Z,6.88
2019-04-14T09:27:27.733Z,7.31
2019-04-14T09:31:32.642Z,7.71
2019-04-14T09:35:37.541Z,7.82
2019-04-14T09:39:43.521Z,8.05
2019-04-14T09:43:48.430Z,8.30
2019-04-14T09:47:53.342Z,8.43
2019-04-14T09:51:58.269Z,8.74
2019-04-14T09:56:03.171Z,9.00
2019-04-14T10:00:08.693Z,8.87
2019-04-14T10:04:13.614Z,8.65
2019-04-14T10:08:18.532Z,8.96
2019-04-14T10:12:23.436Z,8.80
2019-04-14T10:16:28.344Z,9.00
2019-04-14T10:20:33.255Z,9.09
2019-04-14T10:24:38.166Z,8.88
2019-04-14T10:28:43.076Z,8.78
2019-04-14T10:32:47.978Z,8.80
2019-04-14T10:36:53.060Z,8.89
2019-04-14T10:40:57.954Z,9.08
2019-04-14T10:45:02.855Z,9.27
2019-04-14T10:49:07.786Z,9.58
2019-04-14T10:53:12.694Z,9.67
2019-04-14T10:57:17.605Z,9.56
2019-04-14T11:01:22.508Z,9.39
2019-04-14T11:05:30.132Z,9.41
2019-04-14T11:09:35.043Z,9.53
2019-04-14T11:13:39.972Z,9.51
2019-04-14T11:17:44.854Z,9.63
2019-04-14T11:21:49.760Z,9.93
2019-04-14T11:25:54.658Z,9.78
2019-04-14T11:29:59.556Z,9.63
2019-04-14T11:34:04.842Z,10.65
2019-04-14T11:38:14.378Z,10.75
2019-04-14T11:42:19.358Z,10.82
2019-04-14T11:46:24.302Z,10.16
2019-04-14T11:50:29.214Z,10.25
2019-04-14T11:54:34.125Z,10.30
2019-04-14T11:58:39.058Z,10.32
2019-04-14T12:02:54.619Z,10.79
2019-04-14T12:07:17.694Z,10.84
2019-04-14T12:11:22.593Z,10.60
2019-04-14T12:15:27.516Z,10.33
2019-04-14T12:19:32.433Z,10.28
2019-04-14T12:23:37.370Z,10.14
2019-04-14T12:27:42.277Z,9.91
2019-04-14T12:31:48.607Z,10.30
2019-04-14T12:35:53.838Z,10.60
2019-04-14T12:39:58.754Z,10.84
2019-04-14T12:44:13.808Z,10.74
2019-04-14T12:48:20.359Z,10.70
2019-04-14T12:52:26.923Z,10.64
2019-04-14T12:56:31.860Z,10.44
2019-04-14T13:00:41.089Z,10.52
2019-04-14T13:04:46.037Z,10.43
2019-04-14T13:08:50.946Z,10.45
2019-04-14T13:12:55.865Z,10.33
2019-04-14T13:17:00.787Z,10.60
2019-04-14T13:21:05.854Z,10.77
2019-04-14T13:25:11.033Z,10.62
2019-04-14T13:29:16.004Z,10.63
2019-04-14T13:33:20.919Z,10.88
2019-04-14T13:37:25.859Z,10.42
2019-04-14T13:41:30.795Z,10.30
2019-04-14T13:45:35.723Z,10.34
2019-04-14T13:49:40.641Z,10.16
2019-04-14T13:53:45.592Z,10.02
2019-04-14T13:57:51.586Z,9.87
2019-04-14T14:01:56.554Z,10.03
2019-04-14T14:06:01.458Z,10.04
2019-04-14T14:10:08.097Z,10.28
2019-04-14T14:14:14.645Z,10.17
2019-04-14T14:18:26.917Z,10.04
2019-04-14T14:22:59.273Z,10.00
2019-04-14T14:27:01.075Z,9.90
2019-04-14T14:31:06.044Z,9.39
2019-04-14T14:35:11.103Z,9.29
2019-04-14T14:39:17.635Z,9.21
2019-04-14T14:43:22.546Z,9.19
2019-04-14T14:47:29.089Z,9.31
2019-04-14T14:51:44.313Z,9.36
2019-04-14T14:55:49.214Z,9.40
2019-04-14T14:59:54.110Z,9.50
2019-04-14T15:03:59.022Z,9.24
2019-04-14T15:08:04.261Z,9.29
2019-04-14T15:12:09.187Z,9.34
2019-04-14T15:16:14.078Z,9.16
2019-04-14T15:20:20.044Z,8.84
2019-04-14T15:24:25.000Z,8.95
2019-04-14T15:28:29.859Z,9.14
2019-04-14T15:32:34.771Z,8.95
2019-04-14T15:36:39.683Z,8.83
2019-04-14T15:40:44.573Z,8.83
2019-04-14T15:44:49.471Z,8.71
2019-04-14T15:48:55.677Z,8.66
2019-04-14T15:53:00.582Z,8.57
2019-04-14T15:57:07.133Z,8.45
2019-04-14T16:01:13.664Z,8.26
2019-04-14T16:05:24.074Z,8.24
2019-04-14T16:09:36.640Z,8.02
2019-04-14T16:13:48.678Z,7.87
2019-04-14T16:17:55.226Z,7.82
2019-04-14T16:22:00.132Z,7.58
2019-04-14T16:26:06.741Z,7.55
2019-04-14T16:30:19.044Z,7.53
2019-04-14T16:34:28.488Z,7.48
2019-04-14T16:38:33.400Z,7.40
2019-04-14T16:42:38.324Z,7.35
2019-04-14T16:46:43.258Z,7.25
2019-04-14T16:50:48.295Z,7.13
2019-04-14T16:54:54.873Z,7.08
2019-04-14T16:59:01.418Z,7.08
2019-04-14T17:03:06.493Z,7.15
2019-04-14T17:07:11.379Z,7.01
2019-04-14T17:11:16.291Z,6.91
2019-04-14T17:15:36.004Z,6.91
2019-04-14T17:19:42.555Z,6.88
2019-04-14T17:23:57.872Z,6.86
2019-04-14T17:28:04.417Z,6.87
2019-04-14T17:32:22.752Z,6.81
2019-04-14T17:36:41.167Z,6.69
2019-04-14T17:40:50.384Z,6.61
2019-04-14T17:45:15.276Z,6.58
2019-04-14T17:49:27.910Z,6.56
2019-04-14T17:53:37.384Z,6.57
2019-04-14T17:57:59.226Z,6.55
2019-04-14T18:02:14.870Z,6.54
2019-04-14T18:06:24.351Z,6.45
2019-04-14T18:10:33.594Z,6.34
2019-04-14T18:14:40.151Z,6.26
2019-04-14T18:19:02.693Z,6.27
2019-04-14T18:23:07.588Z,6.22
2019-04-14T18:27:12.493Z,6.22
2019-04-14T18:31:21.970Z,6.23
2019-04-14T18:35:30.940Z,6.14
2019-04-14T18:39:50.006Z,6.18
2019-04-14T18:43:59.747Z,6.09
2019-04-14T18:48:22.733Z,6.11
2019-04-14T18:52:35.530Z,6.11
2019-04-14T18:56:42.076Z,5.99
2019-04-14T19:00:54.762Z,5.99
2019-04-14T19:04:59.670Z,5.87
2019-04-14T19:09:06.707Z,5.91
2019-04-14T19:13:14.862Z,5.91
2019-04-14T19:17:30.432Z,5.92
2019-04-14T19:21:35.292Z,5.88
2019-04-14T19:25:40.191Z,5.79
2019-04-14T19:29:45.096Z,5.70
2019-04-14T19:33:49.994Z,5.67
2019-04-14T19:37:54.893Z,5.67
2019-04-14T19:41:59.797Z,5.62
2019-04-14T19:46:04.764Z,5.60
2019-04-14T19:50:10.096Z,5.62
2019-04-14T19:54:14.996Z,5.59
2019-04-14T19:58:19.887Z,5.57
2019-04-14T20:02:24.779Z,5.56
2019-04-14T20:06:29.672Z,5.53
2019-04-14T20:10:34.664Z,5.56
2019-04-14T20:14:39.559Z,5.64
2019-04-14T20:19:10.284Z,5.56
2019-04-14T20:23:16.269Z,5.55
2019-04-14T20:27:22.859Z,5.61
2019-04-14T20:31:38.253Z,5.57
2019-04-14T20:35:43.148Z,5.59
2019-04-14T20:39:48.037Z,5.56
2019-04-14T20:43:52.944Z,5.57
2019-04-14T20:47:57.838Z,5.57
2019-04-14T20:52:02.813Z,5.62
2019-04-14T20:56:07.678Z,5.58
2019-04-14T21:00:13.112Z,5.49
2019-04-14T21:04:22.734Z,5.47
2019-04-14T21:08:44.621Z,5.45
2019-04-14T21:12:54.307Z,5.47
2019-04-14T21:17:06.798Z,5.43
2019-04-14T21:21:28.237Z,5.41
2019-04-14T21:26:00.259Z,5.43
2019-04-14T21:30:06.053Z,5.49
2019-04-14T21:34:12.600Z,5.41
2019-04-14T21:38:34.242Z,5.34
2019-04-14T21:42:40.008Z,5.32
2019-04-14T21:46:44.892Z,5.31
2019-04-14T21:50:49.788Z,5.31
2019-04-14T21:54:54.673Z,5.34
2019-04-14T21:59:03.952Z,5.29
2019-04-14T22:03:13.213Z,5.23
2019-04-14T22:07:19.744Z,5.30
2019-04-14T22:11:25.934Z,5.28
2019-04-14T22:15:30.851Z,5.11
2019-04-14T22:19:35.759Z,4.98
2019-04-14T22:23:40.673Z,4.87
2019-04-14T22:27:45.637Z,4.84
2019-04-14T22:31:50.539Z,4.85
2019-04-14T22:35:56.579Z,4.86
2019-04-14T22:40:01.572Z,4.93
2019-04-14T22:44:06.470Z,4.96
2019-04-14T22:48:11.358Z,4.93
2019-04-14T22:52:16.256Z,4.93
2019-04-14T22:56:21.159Z,4.92
2019-04-14T23:00:27.771Z,4.87
2019-04-14T23:04:41.572Z,4.79
2019-04-14T23:08:54.045Z,4.72
2019-04-14T23:13:12.796Z,4.72
2019-04-14T23:17:31.105Z,4.69
2019-04-14T23:21:43.724Z,4.66
2019-04-14T23:25:48.644Z,4.65
2019-04-14T23:29:53.556Z,4.67
2019-04-14T23:33:58.445Z,4.63
2019-04-14T23:38:03.354Z,4.62
2019-04-14T23:42:08.258Z,4.57
2019-04-14T23:46:13.164Z,4.47
2019-04-14T23:50:18.075Z,4.38
2019-04-14T23:54:22.977Z,4.31
2019-04-14T23:58:27.893Z,4.27
